Time;durP1;ratioP1;P1;durP2;ratioP2;P2;SDS_P1;SDS_P2;PMS_P1;PMS_P2;Temp;Humidity;BMP_temperature;BMP_pressure;BME280_temperature;BME280_humidity;BME280_pressure;Samples;Min_cycle;Max_cycle;Signal;HPM_P1;HPM_P2
2022/06/12 00:01:03;;;;;;;2.13;0.80;;;14.20;77.10;;;;;;5090822;28;20400;-85
2022/06/12 00:03:33;;;;;;;1.63;0.65;;;14.30;74.80;;;;;;5090802;28;20467;-81
2022/06/12 00:06:03;;;;;;;3.30;1.02;;;14.30;74.80;;;;;;5091073;28;20371;-84
2022/06/12 00:08:35;;;;;;;2.63;0.73;;;14.30;74.20;;;;;;5090808;28;20918;-87
2022/06/12 00:11:04;;;;;;;2.80;0.93;;;14.40;74.70;;;;;;5091107;28;20440;-89
2022/06/12 00:13:36;;;;;;;2.03;0.70;;;14.40;75.10;;;;;;5090988;28;20894;-88
2022/06/12 00:16:04;;;;;;;1.70;0.70;;;14.50;74.80;;;;;;5090524;28;20375;-87
2022/06/12 00:18:32;;;;;;;1.98;0.80;;;14.60;76.10;;;;;;5090491;28;20950;-82
2022/06/12 00:21:12;;;;;;;2.65;0.70;;;14.70;73.90;;;;;;5090452;28;20426;-90
2022/06/12 00:23:53;;;;;;;1.98;0.80;;;14.70;72.20;;;;;;5090978;28;20750;-89
2022/06/12 00:26:28;;;;;;;1.70;0.60;;;14.80;72.90;;;;;;5090699;28;20427;-94
2022/06/12 00:29:03;;;;;;;1.53;0.60;;;14.80;71.90;;;;;;5090434;28;20373;-85
2022/06/12 00:31:31;;;;;;;1.45;0.52;;;14.80;72.00;;;;;;5090453;28;20791;-87
2022/06/12 00:34:01;;;;;;;1.30;0.70;;;14.90;72.60;;;;;;5089734;28;20430;-80
2022/06/12 00:36:29;;;;;;;1.70;0.77;;;15.00;71.30;;;;;;5089456;28;20388;-80
2022/06/12 00:38:56;;;;;;;1.40;0.60;;;15.00;71.80;;;;;;5090245;28;20385;-85
2022/06/12 00:41:24;;;;;;;1.98;0.80;;;15.20;71.30;;;;;;5089833;28;20367;-80
2022/06/12 00:43:52;;;;;;;2.55;0.60;;;15.20;69.60;;;;;;5089767;28;20879;-86
2022/06/12 00:46:49;;;;;;;0.83;0.60;;;15.20;69.20;;;;;;5089876;28;20792;-86
2022/06/12 00:49:22;;;;;;;1.70;0.68;;;15.20;70.30;;;;;;5089886;28;20462;-86
2022/06/12 00:51:53;;;;;;;1.58;0.60;;;15.30;69.30;;;;;;5071517;28;20728;-84
2022/06/12 00:54:21;;;;;;;1.45;0.50;;;15.30;69.70;;;;;;5089585;28;20369;-83
2022/06/12 00:56:51;;;;;;;1.17;0.60;;;15.40;69.70;;;;;;5089475;28;20373;-79
2022/06/12 00:59:31;;;;;;;1.30;0.60;;;15.40;69.90;;;;;;5089484;28;20397;-83
2022/06/12 01:01:58;;;;;;;1.90;0.60;;;15.50;68.80;;;;;;5090001;28;20368;-80
2022/06/12 01:07:15;;;;;;;2.33;0.70;;;15.70;67.00;;;;;;5089212;28;20406;-85
2022/06/12 01:09:45;;;;;;;1.20;0.70;;;15.70;66.20;;;;;;5089238;28;20377;-82
2022/06/12 01:12:17;;;;;;;2.55;0.60;;;15.70;66.40;;;;;;5089699;28;20385;-85
2022/06/12 01:14:48;;;;;;;1.35;0.60;;;15.80;66.40;;;;;;5089529;28;20843;-83
2022/06/12 01:17:16;;;;;;;2.00;0.60;;;15.80;67.40;;;;;;5089219;28;20445;-83
2022/06/12 01:19:54;;;;;;;2.28;0.60;;;15.90;66.80;;;;;;5089128;28;20449;-80
2022/06/12 01:22:41;;;;;;;1.58;0.60;;;15.90;66.30;;;;;;5088983;28;20387;-84
2022/06/12 01:25:13;;;;;;;1.70;0.70;;;15.80;66.10;;;;;;5089444;28;20361;-83
2022/06/12 01:28:16;;;;;;;2.05;0.70;;;15.80;65.90;;;;;;5089593;28;20376;-82
2022/06/12 01:30:58;;;;;;;1.27;0.60;;;15.70;66.00;;;;;;5089111;28;20372;-80
2022/06/12 01:33:52;;;;;;;1.60;0.55;;;15.90;66.70;;;;;;5088820;28;20364;-82
2022/06/12 01:36:27;;;;;;;1.90;0.50;;;15.90;66.40;;;;;;5078294;28;20845;-84
2022/06/12 01:39:16;;;;;;;1.63;0.60;;;15.90;66.90;;;;;;5088060;28;20459;-85
2022/06/12 01:41:52;;;;;;;1.58;0.60;;;15.90;66.10;;;;;;5089290;28;20373;-84
2022/06/12 01:44:48;;;;;;;2.30;0.80;;;15.90;66.00;;;;;;5089314;28;20370;-80
2022/06/12 01:47:41;;;;;;;1.10;0.55;;;16.00;66.10;;;;;;5089071;28;20373;-85
2022/06/12 01:50:37;;;;;;;3.05;0.70;;;16.00;65.80;;;;;;5088636;28;20720;-84
2022/06/12 01:53:09;;;;;;;2.08;0.55;;;16.00;65.40;;;;;;5075471;28;20717;-80
2022/06/12 01:56:09;;;;;;;2.28;0.75;;;16.00;64.90;;;;;;5089077;28;20425;-82
2022/06/12 01:58:56;;;;;;;2.05;0.50;;;15.90;65.90;;;;;;5088579;28;20886;-80
2022/06/12 02:01:53;;;;;;;4.25;0.73;;;16.10;67.40;;;;;;5088468;28;20774;-83
2022/06/12 02:04:43;;;;;;;1.30;0.60;;;16.10;64.90;;;;;;5088835;28;20364;-84
2022/06/12 02:07:13;;;;;;;2.38;0.60;;;16.10;64.20;;;;;;4987696;28;20373;-85
2022/06/12 02:09:54;;;;;;;1.20;0.63;;;16.10;64.80;;;;;;4987697;28;20892;-85
2022/06/12 02:15:45;;;;;;;2.03;0.63;;;16.30;64.00;;;;;;4991299;28;20383;-80
2022/06/12 02:18:27;;;;;;;1.30;0.70;;;16.30;64.20;;;;;;4990881;28;20459;-85
2022/06/12 02:21:22;;;;;;;1.95;0.60;;;16.40;63.30;;;;;;4974601;28;20785;-85
2022/06/12 02:23:55;;;;;;;1.63;0.60;;;16.40;63.10;;;;;;4990881;28;20438;-83
2022/06/12 02:26:30;;;;;;;4.03;0.60;;;16.40;63.80;;;;;;4990792;28;20380;-84
2022/06/12 02:29:04;;;;;;;1.75;0.60;;;16.40;63.90;;;;;;4991292;28;20384;-79
2022/06/12 02:31:37;;;;;;;2.00;0.70;;;16.40;63.60;;;;;;4990915;28;20798;-83
2022/06/12 02:34:14;;;;;;;1.10;0.60;;;16.40;64.00;;;;;;4990752;28;20907;-80
2022/06/12 02:36:47;;;;;;;0.82;0.52;;;16.40;64.20;;;;;;5005821;28;20883;-85
2022/06/12 02:39:36;;;;;;;1.35;0.50;;;16.40;63.80;;;;;;5010248;28;20395;-85
2022/06/12 02:42:21;;;;;;;1.92;0.60;;;16.40;63.40;;;;;;5010231;28;20779;-85
2022/06/12 02:44:52;;;;;;;1.40;0.57;;;16.50;63.90;;;;;;5073429;28;20379;-84
2022/06/12 02:47:23;;;;;;;1.30;0.70;;;16.60;63.30;;;;;;5090701;28;20872;-84
2022/06/12 02:49:53;;;;;;;1.60;0.60;;;16.60;63.00;;;;;;5092356;28;20365;-83
2022/06/12 02:52:37;;;;;;;1.73;0.70;;;16.80;62.50;;;;;;5091926;28;20387;-81
2022/06/12 02:55:11;;;;;;;1.25;0.63;;;16.80;62.60;;;;;;5092414;28;20390;-85
2022/06/12 02:58:16;;;;;;;1.30;0.57;;;16.70;63.90;;;;;;5092407;28;21001;-82
2022/06/12 03:01:05;;;;;;;0.80;0.50;;;16.70;63.30;;;;;;5092055;28;20466;-80
2022/06/12 03:04:02;;;;;;;1.20;0.60;;;16.70;62.40;;;;;;5091737;28;20356;-86
2022/06/12 03:06:29;;;;;;;1.85;0.68;;;16.70;61.60;;;;;;5092155;28;20785;-84
2022/06/12 03:08:58;;;;;;;1.40;0.60;;;16.70;61.70;;;;;;5091693;28;20376;-86
2022/06/12 03:11:38;;;;;;;0.90;0.60;;;16.80;62.30;;;;;;5091625;28;20371;-80
2022/06/12 03:14:14;;;;;;;1.52;0.70;;;17.00;62.30;;;;;;5091813;28;20868;-83
2022/06/12 03:16:43;;;;;;;1.08;0.50;;;17.00;62.30;;;;;;5091743;28;20364;-86
2022/06/12 03:19:15;;;;;;;2.10;0.60;;;16.90;61.90;;;;;;5092001;28;20387;-86
2022/06/12 03:22:01;;;;;;;1.73;0.63;;;16.80;63.50;;;;;;5090069;28;20373;-83
2022/06/12 03:25:14;;;;;;;2.40;0.60;;;16.90;61.70;;;;;;5091509;28;20457;-80
2022/06/12 03:28:11;;;;;;;2.50;0.60;;;17.00;61.50;;;;;;5091241;28;20376;-84
2022/06/12 03:30:57;;;;;;;1.58;0.68;;;16.90;62.40;;;;;;5091377;28;20451;-85
2022/06/12 03:33:42;;;;;;;2.63;0.63;;;17.00;62.00;;;;;;5091211;28;20917;-85
2022/06/12 03:36:25;;;;;;;1.88;0.90;;;16.90;63.10;;;;;;5091001;28;20399;-84
2022/06/12 03:39:14;;;;;;;1.98;0.60;;;16.90;62.00;;;;;;5091335;28;20396;-80
2022/06/12 03:41:53;;;;;;;2.75;0.80;;;16.90;62.20;;;;;;5091478;28;20418;-80
2022/06/12 03:44:31;;;;;;;2.42;0.60;;;16.90;62.20;;;;;;5090741;28;20778;-84
2022/06/12 03:47:37;;;;;;;1.67;0.50;;;16.90;62.60;;;;;;5091437;28;20763;-85
2022/06/12 03:50:42;;;;;;;2.00;0.70;;;16.90;61.60;;;;;;5090146;28;20381;-84
2022/06/12 03:53:25;;;;;;;1.83;0.60;;;16.90;62.80;;;;;;5090334;28;20930;-80
2022/06/12 03:59:13;;;;;;;1.60;0.63;;;16.90;62.50;;;;;;5090680;28;20414;-83
2022/06/12 04:01:43;;;;;;;1.42;0.75;;;17.00;62.40;;;;;;5090636;28;20368;-85
2022/06/12 04:04:11;;;;;;;2.05;0.55;;;17.10;62.50;;;;;;5091174;28;20400;-82
2022/06/12 04:06:40;;;;;;;1.40;0.50;;;17.10;61.90;;;;;;5090525;28;20369;-84
2022/06/12 04:09:23;;;;;;;1.10;0.57;;;17.10;60.80;;;;;;5090511;28;20490;-84
2022/06/12 04:12:00;;;;;;;1.58;0.60;;;17.20;59.90;;;;;;5090870;28;20837;-83
2022/06/12 04:14:32;;;;;;;1.67;0.57;;;17.20;60.70;;;;;;5090279;28;20372;-83
2022/06/12 04:17:03;;;;;;;1.40;0.63;;;17.10;59.80;;;;;;5090079;28;20396;-85
2022/06/12 04:19:31;;;;;;;3.40;0.60;;;17.10;59.70;;;;;;5090173;28;20449;-81
2022/06/12 04:22:15;;;;;;;1.27;0.50;;;17.00;60.60;;;;;;5090125;28;20461;-83
2022/06/12 04:24:56;;;;;;;1.00;0.43;;;17.00;61.10;;;;;;5090135;28;20746;-84
2022/06/12 04:27:24;;;;;;;1.25;0.50;;;17.00;61.40;;;;;;5090338;28;20368;-77
2022/06/12 04:29:56;;;;;;;1.25;0.50;;;16.90;60.50;;;;;;5090491;28;20870;-82
2022/06/12 04:32:24;;;;;;;0.85;0.50;;;16.90;61.20;;;;;;5090290;28;20872;-81
2022/06/12 04:34:53;;;;;;;1.65;0.68;;;16.80;60.90;;;;;;5090010;28;20765;-85
2022/06/12 04:37:24;;;;;;;1.58;0.47;;;16.80;61.70;;;;;;5089849;28;20407;-78
2022/06/12 04:39:52;;;;;;;1.33;0.40;;;16.90;61.60;;;;;;5089781;28;20829;-83
2022/06/12 04:42:22;;;;;;;1.30;0.50;;;16.90;61.30;;;;;;5090015;28;20376;-82
2022/06/12 04:44:49;;;;;;;1.70;0.70;;;16.90;61.40;;;;;;5089833;28;20376;-84
2022/06/12 04:47:24;;;;;;;1.10;0.60;;;16.90;62.10;;;;;;5089633;28;20872;-80
2022/06/12 04:49:54;;;;;;;0.73;0.50;;;17.10;61.50;;;;;;5089962;28;20945;-84
2022/06/12 04:52:23;;;;;;;1.57;0.97;;;17.30;61.00;;;;;;5089446;28;20376;-85
2022/06/12 04:54:51;;;;;;;1.35;0.60;;;17.50;59.60;;;;;;5089649;28;20376;-84
2022/06/12 04:57:18;;;;;;;1.70;0.50;;;17.50;59.50;;;;;;5089782;28;20479;-86
2022/06/12 04:59:48;;;;;;;1.80;0.60;;;17.40;59.90;;;;;;5089884;28;20407;-82
2022/06/12 05:02:15;;;;;;;2.08;0.63;;;17.10;61.40;;;;;;5089644;28;20867;-85
2022/06/12 05:04:43;;;;;;;1.98;0.70;;;16.90;61.60;;;;;;5089592;28;20377;-84
2022/06/12 05:07:13;;;;;;;0.73;0.40;;;16.80;60.70;;;;;;5089605;28;20390;-79
2022/06/12 05:09:41;;;;;;;2.90;0.70;;;16.70;61.90;;;;;;5089467;28;20788;-84
2022/06/12 05:12:12;;;;;;;1.52;0.40;;;16.50;62.10;;;;;;5089344;28;20385;-83
2022/06/12 05:14:39;;;;;;;1.85;0.70;;;16.40;62.30;;;;;;5088960;28;20368;-81
2022/06/12 05:17:12;;;;;;;2.53;0.70;;;16.40;62.50;;;;;;5089122;28;20378;-80
2022/06/12 05:19:42;;;;;;;1.55;0.70;;;16.30;63.00;;;;;;5089151;28;20724;-81
2022/06/12 05:22:11;;;;;;;2.03;0.60;;;16.20;63.70;;;;;;5089184;28;20374;-83
2022/06/12 05:24:43;;;;;;;1.65;0.50;;;16.10;64.10;;;;;;5088934;28;20736;-83
2022/06/12 05:27:15;;;;;;;1.10;0.50;;;16.10;64.50;;;;;;5089205;28;20724;-80
2022/06/12 05:29:43;;;;;;;1.63;0.50;;;16.00;64.60;;;;;;5089291;28;20448;-78
2022/06/12 05:32:14;;;;;;;5.53;3.08;;;16.00;65.40;;;;;;5088909;28;20372;-80
2022/06/12 05:34:42;;;;;;;1.35;0.85;;;16.00;65.70;;;;;;5089519;28;20395;-81
2022/06/12 05:37:10;;;;;;;1.65;0.60;;;16.00;65.60;;;;;;5090278;28;20396;-82
2022/06/12 05:39:37;;;;;;;1.27;0.50;;;15.90;65.00;;;;;;5088896;28;20380;-81
2022/06/12 05:42:06;;;;;;;1.50;0.43;;;15.80;65.80;;;;;;5088622;28;20395;-79
2022/06/12 05:44:33;;;;;;;0.68;0.47;;;15.80;65.90;;;;;;5088035;28;20377;-84
2022/06/12 05:47:01;;;;;;;1.27;0.50;;;15.70;66.00;;;;;;5088608;28;20446;-80
2022/06/12 05:49:29;;;;;;;0.73;0.40;;;15.70;66.70;;;;;;5089192;28;20376;-80
2022/06/12 05:51:56;;;;;;;2.00;0.60;;;15.70;67.00;;;;;;5089123;28;20725;-84
2022/06/12 05:54:23;;;;;;;1.52;0.60;;;15.70;67.30;;;;;;5090000;28;20697;-91
2022/06/12 05:56:50;;;;;;;0.82;0.60;;;15.60;67.40;;;;;;5089074;28;20377;-78
2022/06/12 05:59:18;;;;;;;1.67;0.60;;;15.50;67.20;;;;;;5089674;28;20395;-86
2022/06/12 06:01:45;;;;;;;1.40;0.50;;;15.40;67.40;;;;;;5090026;28;20749;-80
2022/06/12 06:04:13;;;;;;;0.90;0.50;;;15.40;67.60;;;;;;5088446;28;20875;-84
2022/06/12 06:06:53;;;;;;;1.35;0.50;;;15.30;67.90;;;;;;5088766;28;20836;-83
2022/06/12 06:09:22;;;;;;;1.67;0.65;;;15.20;68.20;;;;;;5089109;28;20968;-81
2022/06/12 06:11:49;;;;;;;1.17;0.70;;;15.10;68.60;;;;;;5088376;28;20491;-80
2022/06/12 06:14:16;;;;;;;1.05;0.70;;;15.10;68.70;;;;;;5088248;28;20871;-81
2022/06/12 06:16:44;;;;;;;2.35;0.98;;;15.00;68.40;;;;;;5088232;28;20724;-84
2022/06/12 06:19:13;;;;;;;0.98;0.50;;;14.90;68.40;;;;;;5094642;28;20376;-81
2022/06/12 06:21:40;;;;;;;1.52;0.60;;;14.80;69.00;;;;;;5095313;28;20376;-83
2022/06/12 06:24:09;;;;;;;0.82;0.50;;;14.70;70.00;;;;;;5091433;28;20377;-83
2022/06/12 06:26:36;;;;;;;1.50;0.50;;;14.60;70.30;;;;;;5088948;28;20368;-80
2022/06/12 06:29:04;;;;;;;0.70;0.40;;;14.50;70.90;;;;;;5088271;28;20457;-83
2022/06/12 06:31:31;;;;;;;1.38;0.60;;;14.50;71.20;;;;;;5088425;28;20372;-81
2022/06/12 06:33:58;;;;;;;1.40;0.68;;;14.40;71.60;;;;;;5092497;28;20780;-82
2022/06/12 06:36:26;;;;;;;1.77;0.77;;;14.30;72.10;;;;;;5089551;28;20388;-81
2022/06/12 06:38:55;;;;;;;1.52;0.70;;;14.20;73.00;;;;;;5089909;28;20790;-82
2022/06/12 06:41:23;;;;;;;2.33;0.70;;;14.10;73.00;;;;;;5090585;28;20379;-80
2022/06/12 06:46:37;;;;;;;2.55;1.52;;;13.90;74.00;;;;;;5088742;28;20381;-81
2022/06/12 06:49:05;;;;;;;2.13;1.50;;;13.80;74.40;;;;;;5088141;28;20459;-84
2022/06/12 06:51:33;;;;;;;1.38;0.68;;;13.70;74.70;;;;;;5088195;28;20377;-84
2022/06/12 06:54:00;;;;;;;1.40;0.40;;;13.60;75.00;;;;;;5088248;28;20365;-84
2022/06/12 06:56:30;;;;;;;1.00;0.60;;;13.60;75.30;;;;;;5089671;28;20388;-81
2022/06/12 06:58:58;;;;;;;1.10;0.60;;;13.50;75.90;;;;;;5091941;28;20395;-85
2022/06/12 07:01:25;;;;;;;1.50;1.17;;;13.30;76.70;;;;;;5091925;28;20930;-83
2022/06/12 07:03:53;;;;;;;2.22;1.10;;;13.40;76.40;;;;;;5091760;28;20373;-83
2022/06/12 07:06:23;;;;;;;1.40;1.00;;;13.30;77.10;;;;;;5091484;28;20382;-86
2022/06/12 07:08:54;;;;;;;1.67;1.00;;;13.20;77.00;;;;;;5073313;28;20426;-80
2022/06/12 07:11:23;;;;;;;1.73;1.27;;;13.40;77.20;;;;;;5091693;28;20452;-82
2022/06/12 07:13:51;;;;;;;1.57;1.00;;;13.20;77.50;;;;;;5074082;28;20457;-83
2022/06/12 07:16:20;;;;;;;1.13;0.93;;;13.10;77.90;;;;;;5091953;28;20403;-84
2022/06/12 07:19:00;;;;;;;;;;;;;;;;;;;;;
2022/06/12 07:21:28;;;;;;;5.60;3.40;;;13.00;78.50;;;;;;5039474;28;20383;-85
2022/06/12 07:23:55;;;;;;;3.65;2.58;;;13.00;78.80;;;;;;5091276;28;20372;-84
2022/06/12 07:26:28;;;;;;;4.78;3.80;;;12.90;79.20;;;;;;5091551;28;20855;-84
2022/06/12 07:28:56;;;;;;;4.50;3.47;;;12.80;80.00;;;;;;5091588;28;20457;-82
2022/06/12 07:31:24;;;;;;;5.18;4.03;;;12.60;80.90;;;;;;5091052;28;20472;-80
2022/06/12 07:33:52;;;;;;;6.80;3.58;;;12.60;81.20;;;;;;5091270;28;20419;-83
2022/06/12 07:36:20;;;;;;;6.95;4.63;;;12.50;82.00;;;;;;5091167;28;20388;-82
2022/06/12 07:38:49;;;;;;;6.35;3.80;;;12.40;83.10;;;;;;5090921;28;20400;-82
2022/06/12 07:41:18;;;;;;;4.80;3.20;;;12.30;83.80;;;;;;5072788;28;20993;-80
2022/06/12 07:43:46;;;;;;;11.27;8.38;;;12.20;84.80;;;;;;5072972;28;20383;-83
2022/06/12 07:46:17;;;;;;;11.60;7.60;;;12.10;85.40;;;;;;5090994;28;20455;-80
2022/06/12 07:48:45;;;;;;;6.50;4.68;;;12.10;86.40;;;;;;5090685;28;20376;-82
2022/06/12 07:51:17;;;;;;;3.15;2.70;;;11.90;87.60;;;;;;5090831;28;20813;-81
2022/06/12 07:53:45;;;;;;;6.95;4.28;;;11.80;88.80;;;;;;5090559;28;20447;-82
2022/06/12 07:56:14;;;;;;;6.45;5.47;;;11.70;90.30;;;;;;5090792;28;20365;-82
2022/06/12 07:58:41;;;;;;;8.55;5.85;;;11.50;91.20;;;;;;5090660;28;20809;-80
2022/06/12 08:01:11;;;;;;;14.15;10.48;;;11.30;92.10;;;;;;5090480;28;20401;-82
2022/06/12 08:03:38;;;;;;;9.65;7.57;;;11.10;92.90;;;;;;5090581;28;20377;-83
2022/06/12 08:06:06;;;;;;;54.40;34.33;;;11.10;93.80;;;;;;5090256;28;20403;-81
2022/06/12 08:08:33;;;;;;;44.42;30.02;;;10.90;94.80;;;;;;5090145;28;20380;-83
2022/06/12 08:11:01;;;;;;;22.60;16.00;;;10.90;95.60;;;;;;5090429;28;20467;-83
2022/06/12 08:13:30;;;;;;;23.27;13.80;;;10.80;96.40;;;;;;5092224;28;20373;-84
2022/06/12 08:15:58;;;;;;;14.75;10.65;;;10.80;97.00;;;;;;5092046;28;20737;-84
2022/06/12 08:18:25;;;;;;;17.75;11.85;;;10.70;97.40;;;;;;5090556;28;20805;-87
2022/06/12 08:20:56;;;;;;;15.27;9.57;;;10.60;97.40;;;;;;5091908;28;20398;-86
2022/06/12 08:23:51;;;;;;;12.63;7.63;;;10.40;98.10;;;;;;5091867;28;20805;-84
2022/06/12 08:26:25;;;;;;;7.63;4.32;;;10.20;98.90;;;;;;5088171;28;20379;-86
2022/06/12 08:28:55;;;;;;;6.97;4.40;;;10.10;99.90;;;;;;5090815;28;20369;-84
2022/06/12 08:31:26;;;;;;;25.52;16.52;;;10.10;99.90;;;;;;5090550;28;20382;-81
2022/06/12 08:33:58;;;;;;;28.45;18.25;;;10.00;99.90;;;;;;5090055;28;20363;-84
2022/06/12 08:36:26;;;;;;;33.45;22.38;;;9.90;99.90;;;;;;5090022;28;20419;-86
2022/06/12 08:38:53;;;;;;;27.33;16.50;;;9.80;99.90;;;;;;5089546;28;20502;-83
2022/06/12 08:41:51;;;;;;;11.38;8.13;;;9.80;99.90;;;;;;5090208;28;20432;-85
2022/06/12 08:44:23;;;;;;;22.07;14.10;;;9.60;99.90;;;;;;5090766;28;20377;-85
2022/06/12 08:46:59;;;;;;;26.30;17.30;;;9.50;99.90;;;;;;5090878;28;20379;-82
2022/06/12 08:50:04;;;;;;;44.60;27.05;;;9.40;99.90;;;;;;5090960;28;20728;-81
2022/06/12 08:52:52;;;;;;;30.30;20.27;;;9.40;99.90;;;;;;5071776;28;20369;-82
2022/06/12 08:55:26;;;;;;;20.55;13.45;;;9.30;99.90;;;;;;5089706;28;20437;-84
2022/06/12 08:58:21;;;;;;;9.43;5.28;;;9.20;99.90;;;;;;5090058;28;20805;-80
2022/06/12 09:00:54;;;;;;;8.17;5.60;;;9.30;99.90;;;;;;5090398;28;20371;-86
2022/06/12 09:03:24;;;;;;;6.33;5.20;;;9.50;99.90;;;;;;5090513;28;20962;-81
2022/06/12 09:06:02;;;;;;;10.35;6.20;;;9.60;99.90;;;;;;5090049;28;20443;-85
2022/06/12 09:08:39;;;;;;;5.88;4.07;;;9.50;99.90;;;;;;5090144;28;20368;-85
2022/06/12 09:11:15;;;;;;;7.32;4.53;;;9.40;99.90;;;;;;5090207;28;20445;-84
2022/06/12 09:14:06;;;;;;;5.43;3.35;;;9.30;99.90;;;;;;5089678;28;20420;-82
2022/06/12 09:16:51;;;;;;;4.70;3.70;;;9.30;99.90;;;;;;5089381;28;20709;-86
2022/06/12 09:20:09;;;;;;;5.67;3.30;;;9.10;99.90;;;;;;5089136;28;20442;-85
2022/06/12 09:23:03;;;;;;;9.10;6.78;;;9.00;99.90;;;;;;4987605;28;20742;-83
2022/06/12 09:25:45;;;;;;;8.87;7.20;;;9.00;99.90;;;;;;4988165;28;20448;-83
2022/06/12 09:28:31;;;;;;;9.20;6.53;;;8.90;99.90;;;;;;4987970;28;20404;-85
2022/06/12 09:31:25;;;;;;;11.35;8.45;;;8.90;99.90;;;;;;4988232;28;20416;-84
2022/06/12 09:34:10;;;;;;;10.70;8.20;;;8.80;99.90;;;;;;4988206;28;20437;-86
2022/06/12 09:36:48;;;;;;;12.68;9.18;;;8.80;99.90;;;;;;5002458;28;20423;-86
2022/06/12 09:39:22;;;;;;;6.43;4.78;;;9.00;99.90;;;;;;5008588;28;20418;-87
2022/06/12 09:41:59;;;;;;;7.38;3.97;;;9.10;99.90;;;;;;4991272;28;20383;-86
2022/06/12 09:44:49;;;;;;;3.92;2.88;;;9.20;99.90;;;;;;5008982;28;20541;-84
2022/06/12 09:47:20;;;;;;;2.90;2.40;;;9.30;99.90;;;;;;5008162;28;20946;-84
2022/06/12 09:50:09;;;;;;;3.70;2.25;;;9.40;99.90;;;;;;5008109;28;20463;-81
2022/06/12 09:52:57;;;;;;;4.28;2.08;;;9.50;99.90;;;;;;5008394;28;20571;-84
2022/06/12 09:55:41;;;;;;;3.38;1.73;;;9.50;99.90;;;;;;5007609;28;20427;-84
2022/06/12 09:58:23;;;;;;;2.87;1.60;;;9.60;99.90;;;;;;5056974;28;20725;-81
2022/06/12 10:01:02;;;;;;;1.92;1.63;;;9.60;99.90;;;;;;5089608;28;20368;-82
2022/06/12 10:03:35;;;;;;;2.97;2.10;;;9.50;99.90;;;;;;5089514;28;20898;-85
2022/06/12 10:06:20;;;;;;;3.38;1.95;;;9.50;99.90;;;;;;5089329;28;20376;-87
2022/06/12 10:08:55;;;;;;;3.80;2.30;;;9.30;99.90;;;;;;5090019;28;20389;-84
2022/06/12 10:11:36;;;;;;;3.63;2.28;;;9.20;99.90;;;;;;5090360;28;20421;-87
2022/06/12 10:14:44;;;;;;;2.53;2.20;;;9.10;99.90;;;;;;5090697;28;20424;-85
2022/06/12 10:17:39;;;;;;;3.42;2.30;;;9.10;99.90;;;;;;5085319;28;20436;-85
2022/06/12 10:20:17;;;;;;;2.15;2.00;;;8.90;99.90;;;;;;5087897;28;20380;-81
2022/06/12 10:22:49;;;;;;;5.18;3.42;;;8.70;99.90;;;;;;5089850;28;20365;-86
2022/06/12 10:25:34;;;;;;;4.80;2.83;;;8.70;99.90;;;;;;5090791;28;20975;-87
2022/06/12 10:28:14;;;;;;;5.63;3.78;;;8.60;99.90;;;;;;5090067;28;20390;-86
2022/06/12 10:30:47;;;;;;;5.32;3.45;;;8.50;99.90;;;;;;5090268;28;20502;-84
2022/06/12 10:33:43;;;;;;;6.53;4.05;;;8.40;99.90;;;;;;5092292;28;20911;-87
2022/06/12 10:36:36;;;;;;;8.73;3.97;;;8.20;99.90;;;;;;5082471;28;20912;-86
2022/06/12 10:39:32;;;;;;;5.03;3.70;;;8.00;99.90;;;;;;5088950;28;20876;-83
2022/06/12 10:42:04;;;;;;;15.25;12.68;;;7.90;99.90;;;;;;5087096;28;20396;-81
2022/06/12 10:44:39;;;;;;;11.75;9.35;;;7.60;99.90;;;;;;5092819;28;20364;-82
2022/06/12 10:47:23;;;;;;;12.40;9.77;;;7.80;99.90;;;;;;5093331;28;20369;-87
2022/06/12 10:50:14;;;;;;;9.80;7.35;;;7.70;99.90;;;;;;5093012;28;20486;-85
2022/06/12 10:52:58;;;;;;;9.23;8.00;;;7.70;99.90;;;;;;5092798;28;20364;-86
2022/06/12 10:55:45;;;;;;;9.45;8.30;;;7.70;99.90;;;;;;5092970;28;20856;-86
2022/06/12 10:58:24;;;;;;;13.75;11.20;;;7.70;99.90;;;;;;4991342;28;20822;-85
2022/06/12 11:00:54;;;;;;;11.75;8.63;;;7.60;99.90;;;;;;4991406;28;20379;-86
2022/06/12 11:03:42;;;;;;;9.30;7.23;;;7.60;99.90;;;;;;4991367;28;20776;-87
2022/06/12 11:06:15;;;;;;;9.10;6.35;;;7.70;99.90;;;;;;4991951;28;20365;-82
2022/06/12 11:09:11;;;;;;;6.95;5.80;;;7.60;99.90;;;;;;4992159;28;20381;-84
2022/06/12 11:11:51;;;;;;;10.13;8.27;;;7.70;99.90;;;;;;4992083;28;20522;-86
2022/06/12 11:14:37;;;;;;;13.68;11.07;;;7.70;99.90;;;;;;4992136;28;20381;-87
2022/06/12 11:17:36;;;;;;;13.15;10.70;;;7.70;99.90;;;;;;4992230;28;20384;-86
2022/06/12 11:20:23;;;;;;;14.02;8.82;;;7.60;99.90;;;;;;4992790;28;20900;-86
2022/06/12 11:23:15;;;;;;;12.10;8.85;;;7.50;99.90;;;;;;4992557;28;20464;-86
2022/06/12 11:25:57;;;;;;;11.93;9.40;;;7.40;99.90;;;;;;4992235;28;20377;-81
2022/06/12 11:28:27;;;;;;;9.88;7.97;;;7.30;99.90;;;;;;4993979;28;21023;-86
2022/06/12 11:31:02;;;;;;;9.63;8.02;;;7.20;99.90;;;;;;4992034;28;20481;-87
2022/06/12 11:33:47;;;;;;;8.55;7.07;;;7.20;99.90;;;;;;4991577;28;20396;-89
2022/06/12 11:36:32;;;;;;;12.07;7.20;;;7.10;99.90;;;;;;5081659;28;20416;-86
2022/06/12 11:39:26;;;;;;;7.80;6.43;;;7.10;99.90;;;;;;5092207;28;20436;-87
2022/06/12 11:42:17;;;;;;;8.68;6.57;;;7.10;99.90;;;;;;5091182;28;20368;-83
2022/06/12 11:44:50;;;;;;;8.02;6.50;;;7.10;99.90;;;;;;5092159;28;20368;-84
2022/06/12 11:47:25;;;;;;;6.82;6.13;;;7.20;99.90;;;;;;5091442;28;20368;-88
2022/06/12 11:49:57;;;;;;;6.27;5.33;;;7.20;99.90;;;;;;5091807;28;20450;-85
2022/06/12 11:52:46;;;;;;;5.82;4.65;;;7.40;99.90;;;;;;5092521;28;20408;-83
2022/06/12 11:55:46;;;;;;;4.78;4.00;;;7.40;99.90;;;;;;5092495;28;20694;-82
2022/06/12 11:58:19;;;;;;;3.47;2.83;;;7.30;99.90;;;;;;5091599;28;20431;-82
2022/06/12 12:01:21;;;;;;;4.65;3.08;;;7.30;99.90;;;;;;5091694;28;20736;-81
2022/06/12 12:04:03;;;;;;;4.05;3.00;;;7.20;99.90;;;;;;5091917;28;20376;-84
2022/06/12 12:07:07;;;;;;;3.33;2.88;;;7.10;99.90;;;;;;5093165;28;20920;-83
2022/06/12 12:09:48;;;;;;;3.70;2.97;;;7.00;99.90;;;;;;5096022;28;20864;-86
2022/06/12 12:12:30;;;;;;;4.22;3.28;;;7.00;99.90;;;;;;5096117;28;20460;-83
2022/06/12 12:15:00;;;;;;;5.70;2.92;;;7.00;99.90;;;;;;5091673;28;20379;-81
2022/06/12 12:17:37;;;;;;;5.47;3.15;;;7.00;99.90;;;;;;5092187;28;20414;-79
2022/06/12 12:20:28;;;;;;;3.28;2.97;;;7.00;99.90;;;;;;5092037;28;20372;-81
2022/06/12 12:23:13;;;;;;;3.53;3.00;;;6.90;99.90;;;;;;5091363;28;20375;-83
2022/06/12 12:25:56;;;;;;;4.30;3.53;;;6.90;99.90;;;;;;5091702;28;20451;-85
2022/06/12 12:28:43;;;;;;;4.93;4.00;;;6.90;99.90;;;;;;5072763;28;20387;-80
2022/06/12 12:31:13;;;;;;;7.07;4.63;;;6.80;99.90;;;;;;5090299;28;20372;-81
2022/06/12 12:33:43;;;;;;;5.68;5.07;;;6.80;99.90;;;;;;5090569;28;20729;-86
2022/06/12 12:42:00;;;;;;;11.73;9.55;;;6.80;99.90;;;;;;5090435;28;20438;-83
2022/06/12 12:44:37;;;;;;;9.40;7.60;;;6.70;99.90;;;;;;5090689;28;20372;-81
2022/06/12 12:47:25;;;;;;;10.52;8.60;;;6.70;99.90;;;;;;5085693;28;20383;-81
2022/06/12 12:50:05;;;;;;;12.07;10.10;;;6.70;99.90;;;;;;5089815;28;20442;-86
2022/06/12 12:52:50;;;;;;;13.07;10.00;;;6.70;99.90;;;;;;5072265;28;20868;-79
2022/06/12 12:55:42;;;;;;;13.38;8.93;;;6.70;99.90;;;;;;5089482;28;20377;-80
2022/06/12 12:58:21;;;;;;;9.68;7.45;;;6.60;99.90;;;;;;5090040;28;20872;-86
2022/06/12 13:00:48;;;;;;;11.55;7.80;;;6.50;99.90;;;;;;5090327;28;20372;-81
2022/06/12 13:03:31;;;;;;;10.05;7.53;;;6.50;99.90;;;;;;5089634;28;20402;-82
2022/06/12 13:06:16;;;;;;;11.60;7.82;;;6.40;99.90;;;;;;5089529;28;20449;-82
2022/06/12 13:08:54;;;;;;;11.27;9.15;;;6.30;99.90;;;;;;5089309;28;20368;-85
2022/06/12 13:11:28;;;;;;;17.93;12.73;;;6.30;99.90;;;;;;5089614;28;20907;-86
2022/06/12 13:14:12;;;;;;;16.25;11.50;;;6.30;99.90;;;;;;5090025;28;20365;-89
2022/06/12 13:17:15;;;;;;;16.08;11.25;;;6.30;99.90;;;;;;5089801;28;20845;-84
2022/06/12 13:20:13;;;;;;;15.02;11.38;;;6.30;99.90;;;;;;5071098;28;20908;-86
2022/06/12 13:22:55;;;;;;;13.82;10.27;;;6.20;99.90;;;;;;4968323;28;20382;-84
2022/06/12 13:25:30;;;;;;;15.73;12.50;;;6.20;99.90;;;;;;4968854;28;20418;-84
2022/06/12 13:28:00;;;;;;;14.25;10.82;;;6.20;99.90;;;;;;4968187;28;20450;-84
2022/06/12 13:30:40;;;;;;;12.02;9.20;;;6.20;99.90;;;;;;4968058;28;20417;-79
2022/06/12 13:33:32;;;;;;;12.77;8.50;;;6.20;99.90;;;;;;4968120;28;20410;-79
2022/06/12 13:36:12;;;;;;;9.30;8.05;;;6.10;99.90;;;;;;4967706;28;20398;-83
2022/06/12 13:39:00;;;;;;;9.95;7.68;;;6.10;99.90;;;;;;4968577;28;20406;-85
2022/06/12 13:41:37;;;;;;;8.30;6.63;;;6.10;99.90;;;;;;4968837;28;20383;-79
2022/06/12 13:44:25;;;;;;;9.02;6.45;;;6.00;99.90;;;;;;4968601;28;20567;-80
2022/06/12 13:46:54;;;;;;;8.23;6.73;;;5.90;99.90;;;;;;4968184;28;20390;-86
2022/06/12 13:49:44;;;;;;;10.13;6.60;;;5.90;99.90;;;;;;4967969;28;20854;-84
2022/06/12 13:52:37;;;;;;;8.68;6.43;;;5.80;99.90;;;;;;4968250;28;20733;-83
2022/06/12 13:55:28;;;;;;;9.52;7.00;;;5.80;99.90;;;;;;4968558;28;20374;-79
2022/06/12 13:57:59;;;;;;;10.27;7.50;;;5.80;99.90;;;;;;4967761;28;20414;-83